Arthurdale, West Virginia
Current Conditions -  °F | °C
As of 1:53 PM on Monday 20 Oct 2014 (Local Time) from KMGW Reporting Station
Overcast Overcast  
Wind Chill: 13°   Ceiling: 9000
Heat Index: 13°   Visibility: 10mi
Dew Point:   Wind: 7mph
Humidity: 51%   Direction: 200°SSW
Pressure: 29.96"   Gusts: NA
Location:  39.49°N, 79.82°W
Report Text: KMGW 201753Z 20006KT 10SM OVC090 13/03 A2996 RMK AO2 SLP147 T01330033 10133 20061 58027
Loading
Personal Weather Stations






























Interactive Weather Map
Tropical Storm Tracking
New forecast layout! Learn more

10-Day Weather Forecast

Advertisements
Track Severe Weather on mobile